sensor_id;sensor_type;location;lat;lon;timestamp;temperature;humidity
8643;DHT22;4359;49.358;11.256;2022-11-15T00:00:14;3.60;99.90
8643;DHT22;4359;49.358;11.256;2022-11-15T00:02:40;3.70;99.90
8643;DHT22;4359;49.358;11.256;2022-11-15T00:05:05;3.70;99.90
8643;DHT22;4359;49.358;11.256;2022-11-15T00:07:31;3.70;99.90
8643;DHT22;4359;49.358;11.256;2022-11-15T00:09:56;3.60;99.90
8643;DHT22;4359;49.358;11.256;2022-11-15T00:12:22;3.60;99.90
8643;DHT22;4359;49.358;11.256;2022-11-15T00:14:47;3.50;99.90
8643;DHT22;4359;49.358;11.256;2022-11-15T00:17:13;3.40;99.90
8643;DHT22;4359;49.358;11.256;2022-11-15T00:19:38;3.50;99.90
8643;DHT22;4359;49.358;11.256;2022-11-15T00:22:04;3.50;99.90
8643;DHT22;4359;49.358;11.256;2022-11-15T00:24:29;3.50;99.90
8643;DHT22;4359;49.358;11.256;2022-11-15T00:26:55;3.50;99.90
8643;DHT22;4359;49.358;11.256;2022-11-15T00:29:20;3.50;99.90
8643;DHT22;4359;49.358;11.256;2022-11-15T00:31:46;3.60;99.90
8643;DHT22;4359;49.358;11.256;2022-11-15T00:34:11;3.60;99.90
8643;DHT22;4359;49.358;11.256;2022-11-15T00:36:37;3.60;99.90
8643;DHT22;4359;49.358;11.256;2022-11-15T00:39:03;3.60;99.90
8643;DHT22;4359;49.358;11.256;2022-11-15T00:41:30;3.60;99.90
8643;DHT22;4359;49.358;11.256;2022-11-15T00:43:55;3.70;99.90
8643;DHT22;4359;49.358;11.256;2022-11-15T00:46:21;3.80;99.90
8643;DHT22;4359;49.358;11.256;2022-11-15T00:48:46;3.90;99.90
8643;DHT22;4359;49.358;11.256;2022-11-15T00:51:14;3.90;99.90
8643;DHT22;4359;49.358;11.256;2022-11-15T00:53:40;3.90;99.90
8643;DHT22;4359;49.358;11.256;2022-11-15T00:56:05;3.80;99.90
8643;DHT22;4359;49.358;11.256;2022-11-15T00:58:31;3.80;99.90
8643;DHT22;4359;49.358;11.256;2022-11-15T01:00:56;3.80;99.90
8643;DHT22;4359;49.358;11.256;2022-11-15T01:03:31;3.70;99.90
8643;DHT22;4359;49.358;11.256;2022-11-15T01:05:58;3.60;99.90
8643;DHT22;4359;49.358;11.256;2022-11-15T01:08:24;3.50;99.90
8643;DHT22;4359;49.358;11.256;2022-11-15T01:10:50;3.30;99.90
8643;DHT22;4359;49.358;11.256;2022-11-15T01:13:15;3.20;99.90
8643;DHT22;4359;49.358;11.256;2022-11-15T01:15:41;3.10;99.90
8643;DHT22;4359;49.358;11.256;2022-11-15T01:18:07;3.10;99.90
8643;DHT22;4359;49.358;11.256;2022-11-15T01:20:32;3.00;99.90
8643;DHT22;4359;49.358;11.256;2022-11-15T01:22:58;2.90;99.90
8643;DHT22;4359;49.358;11.256;2022-11-15T01:25:23;2.80;99.90
8643;DHT22;4359;49.358;11.256;2022-11-15T01:27:49;2.80;99.90
8643;DHT22;4359;49.358;11.256;2022-11-15T01:30:15;2.70;99.90
8643;DHT22;4359;49.358;11.256;2022-11-15T01:32:40;2.70;99.90
8643;DHT22;4359;49.358;11.256;2022-11-15T01:35:06;2.80;99.90
8643;DHT22;4359;49.358;11.256;2022-11-15T01:37:31;2.80;99.90
8643;DHT22;4359;49.358;11.256;2022-11-15T01:39:57;2.80;99.90
8643;DHT22;4359;49.358;11.256;2022-11-15T01:42:22;2.80;99.90
8643;DHT22;4359;49.358;11.256;2022-11-15T01:44:49;2.70;99.90
8643;DHT22;4359;49.358;11.256;2022-11-15T01:47:16;2.70;99.90
8643;DHT22;4359;49.358;11.256;2022-11-15T01:49:50;2.60;99.90
8643;DHT22;4359;49.358;11.256;2022-11-15T01:52:18;2.60;99.90
8643;DHT22;4359;49.358;11.256;2022-11-15T01:54:44;2.60;99.90
8643;DHT22;4359;49.358;11.256;2022-11-15T01:57:10;2.60;99.90
8643;DHT22;4359;49.358;11.256;2022-11-15T01:59:37;2.50;99.90
8643;DHT22;4359;49.358;11.256;2022-11-15T02:02:03;2.50;99.90
8643;DHT22;4359;49.358;11.256;2022-11-15T02:04:30;2.30;99.90
8643;DHT22;4359;49.358;11.256;2022-11-15T02:06:56;2.30;99.90
8643;DHT22;4359;49.358;11.256;2022-11-15T02:09:22;2.30;99.90
8643;DHT22;4359;49.358;11.256;2022-11-15T02:11:48;2.30;99.90
8643;DHT22;4359;49.358;11.256;2022-11-15T02:14:15;2.50;99.90
8643;DHT22;4359;49.358;11.256;2022-11-15T02:24:34;2.10;99.90
8643;DHT22;4359;49.358;11.256;2022-11-15T02:32:07;2.00;99.90
8643;DHT22;4359;49.358;11.256;2022-11-15T02:42:19;2.00;99.90
8643;DHT22;4359;49.358;11.256;2022-11-15T02:45:06;2.20;99.90
8643;DHT22;4359;49.358;11.256;2022-11-15T02:47:35;2.30;99.90
8643;DHT22;4359;49.358;11.256;2022-11-15T02:50:05;2.40;99.90
8643;DHT22;4359;49.358;11.256;2022-11-15T02:52:31;2.40;99.90
8643;DHT22;4359;49.358;11.256;2022-11-15T02:55:00;2.40;99.90
8643;DHT22;4359;49.358;11.256;2022-11-15T03:00:13;2.30;99.90
8643;DHT22;4359;49.358;11.256;2022-11-15T03:05:42;2.00;99.90
8643;DHT22;4359;49.358;11.256;2022-11-15T03:16:34;1.80;99.90
8643;DHT22;4359;49.358;11.256;2022-11-15T03:18:38;1.80;99.90
8643;DHT22;4359;49.358;11.256;2022-11-15T03:21:06;1.70;99.90
8643;DHT22;4359;49.358;11.256;2022-11-15T03:23:33;1.70;99.90
8643;DHT22;4359;49.358;11.256;2022-11-15T03:25:59;1.70;99.90
8643;DHT22;4359;49.358;11.256;2022-11-15T03:28:34;1.70;99.90
8643;DHT22;4359;49.358;11.256;2022-11-15T03:31:01;1.70;99.90
8643;DHT22;4359;49.358;11.256;2022-11-15T03:33:47;1.70;99.90
8643;DHT22;4359;49.358;11.256;2022-11-15T03:36:13;1.70;99.90
8643;DHT22;4359;49.358;11.256;2022-11-15T03:38:39;1.60;99.90
8643;DHT22;4359;49.358;11.256;2022-11-15T03:41:08;1.60;99.90
8643;DHT22;4359;49.358;11.256;2022-11-15T03:43:44;1.50;99.90
8643;DHT22;4359;49.358;11.256;2022-11-15T03:46:13;1.40;99.90
8643;DHT22;4359;49.358;11.256;2022-11-15T03:48:41;1.40;99.90
8643;DHT22;4359;49.358;11.256;2022-11-15T03:51:08;1.40;99.90
8643;DHT22;4359;49.358;11.256;2022-11-15T03:53:33;1.40;99.90
8643;DHT22;4359;49.358;11.256;2022-11-15T03:55:59;1.40;99.90
8643;DHT22;4359;49.358;11.256;2022-11-15T03:58:24;1.40;99.90
8643;DHT22;4359;49.358;11.256;2022-11-15T04:00:50;1.40;99.90
8643;DHT22;4359;49.358;11.256;2022-11-15T04:03:15;1.40;99.90
8643;DHT22;4359;49.358;11.256;2022-11-15T04:05:41;1.30;99.90
8643;DHT22;4359;49.358;11.256;2022-11-15T04:08:06;1.20;99.90
8643;DHT22;4359;49.358;11.256;2022-11-15T04:10:32;1.20;99.90
8643;DHT22;4359;49.358;11.256;2022-11-15T04:12:57;1.10;99.90
8643;DHT22;4359;49.358;11.256;2022-11-15T04:15:23;1.20;99.90
8643;DHT22;4359;49.358;11.256;2022-11-15T04:22:59;1.10;99.90
8643;DHT22;4359;49.358;11.256;2022-11-15T04:25:43;1.10;99.90
8643;DHT22;4359;49.358;11.256;2022-11-15T04:28:09;1.10;99.90
8643;DHT22;4359;49.358;11.256;2022-11-15T04:30:35;1.10;99.90
8643;DHT22;4359;49.358;11.256;2022-11-15T04:33:01;1.00;99.90
8643;DHT22;4359;49.358;11.256;2022-11-15T04:35:26;1.00;99.90
8643;DHT22;4359;49.358;11.256;2022-11-15T04:37:52;1.00;99.90
8643;DHT22;4359;49.358;11.256;2022-11-15T04:40:18;1.10;99.90
8643;DHT22;4359;49.358;11.256;2022-11-15T04:42:43;1.10;99.90
8643;DHT22;4359;49.358;11.256;2022-11-15T04:45:09;1.10;99.90
8643;DHT22;4359;49.358;11.256;2022-11-15T04:47:35;0.90;99.90
8643;DHT22;4359;49.358;11.256;2022-11-15T04:50:00;0.90;99.90
8643;DHT22;4359;49.358;11.256;2022-11-15T04:52:26;1.00;99.90
8643;DHT22;4359;49.358;11.256;2022-11-15T04:54:51;0.90;99.90
8643;DHT22;4359;49.358;11.256;2022-11-15T04:57:17;0.90;99.90
8643;DHT22;4359;49.358;11.256;2022-11-15T04:59:43;0.90;99.90
8643;DHT22;4359;49.358;11.256;2022-11-15T05:02:08;0.80;99.90
8643;DHT22;4359;49.358;11.256;2022-11-15T05:04:34;1.00;99.90
8643;DHT22;4359;49.358;11.256;2022-11-15T05:06:59;1.00;99.90
8643;DHT22;4359;49.358;11.256;2022-11-15T05:09:25;0.90;99.90
8643;DHT22;4359;49.358;11.256;2022-11-15T05:11:50;0.90;99.90
8643;DHT22;4359;49.358;11.256;2022-11-15T05:14:16;0.80;99.90
8643;DHT22;4359;49.358;11.256;2022-11-15T05:16:42;0.80;99.90
8643;DHT22;4359;49.358;11.256;2022-11-15T05:19:08;0.80;99.90
8643;DHT22;4359;49.358;11.256;2022-11-15T05:21:33;0.70;99.90
8643;DHT22;4359;49.358;11.256;2022-11-15T05:23:59;0.70;99.90
8643;DHT22;4359;49.358;11.256;2022-11-15T05:26:24;0.60;99.90
8643;DHT22;4359;49.358;11.256;2022-11-15T05:28:54;0.60;99.90
8643;DHT22;4359;49.358;11.256;2022-11-15T05:31:20;0.60;99.90
8643;DHT22;4359;49.358;11.256;2022-11-15T05:33:45;0.60;99.90
8643;DHT22;4359;49.358;11.256;2022-11-15T05:36:17;0.60;99.90
8643;DHT22;4359;49.358;11.256;2022-11-15T05:38:44;0.50;99.90
8643;DHT22;4359;49.358;11.256;2022-11-15T05:41:09;0.50;99.90
8643;DHT22;4359;49.358;11.256;2022-11-15T05:43:35;0.60;99.90
8643;DHT22;4359;49.358;11.256;2022-11-15T05:46:02;0.50;99.90
8643;DHT22;4359;49.358;11.256;2022-11-15T05:48:28;0.50;99.90
8643;DHT22;4359;49.358;11.256;2022-11-15T05:50:54;0.50;99.90
8643;DHT22;4359;49.358;11.256;2022-11-15T05:53:20;0.50;99.90
8643;DHT22;4359;49.358;11.256;2022-11-15T05:55:47;0.50;99.90
8643;DHT22;4359;49.358;11.256;2022-11-15T05:58:13;0.50;99.90
8643;DHT22;4359;49.358;11.256;2022-11-15T06:00:38;0.40;99.90
8643;DHT22;4359;49.358;11.256;2022-11-15T06:03:04;0.40;99.90
8643;DHT22;4359;49.358;11.256;2022-11-15T06:05:30;0.50;99.90
8643;DHT22;4359;49.358;11.256;2022-11-15T06:07:58;0.40;99.90
8643;DHT22;4359;49.358;11.256;2022-11-15T06:10:24;0.40;99.90
8643;DHT22;4359;49.358;11.256;2022-11-15T06:12:56;0.40;99.90
8643;DHT22;4359;49.358;11.256;2022-11-15T06:15:22;0.40;99.90
8643;DHT22;4359;49.358;11.256;2022-11-15T06:17:47;0.40;99.90
8643;DHT22;4359;49.358;11.256;2022-11-15T06:20:13;0.30;99.90
8643;DHT22;4359;49.358;11.256;2022-11-15T06:22:38;0.30;99.90
8643;DHT22;4359;49.358;11.256;2022-11-15T06:25:04;0.30;99.90
8643;DHT22;4359;49.358;11.256;2022-11-15T06:27:29;0.30;99.90
8643;DHT22;4359;49.358;11.256;2022-11-15T06:29:55;0.30;99.90
8643;DHT22;4359;49.358;11.256;2022-11-15T06:32:20;0.20;99.90
8643;DHT22;4359;49.358;11.256;2022-11-15T06:34:46;0.20;99.90
8643;DHT22;4359;49.358;11.256;2022-11-15T06:37:11;0.20;99.90
8643;DHT22;4359;49.358;11.256;2022-11-15T06:39:37;0.10;99.90
8643;DHT22;4359;49.358;11.256;2022-11-15T06:42:02;0.20;99.90
8643;DHT22;4359;49.358;11.256;2022-11-15T06:44:28;0.30;99.90
8643;DHT22;4359;49.358;11.256;2022-11-15T06:46:53;0.30;99.90
8643;DHT22;4359;49.358;11.256;2022-11-15T06:49:19;0.30;99.90
8643;DHT22;4359;49.358;11.256;2022-11-15T06:51:44;0.40;99.90
8643;DHT22;4359;49.358;11.256;2022-11-15T06:54:10;0.50;99.90
8643;DHT22;4359;49.358;11.256;2022-11-15T06:56:35;0.60;99.90
8643;DHT22;4359;49.358;11.256;2022-11-15T06:59:01;0.70;99.90
8643;DHT22;4359;49.358;11.256;2022-11-15T07:01:26;0.70;99.90
8643;DHT22;4359;49.358;11.256;2022-11-15T07:03:52;0.90;99.90
8643;DHT22;4359;49.358;11.256;2022-11-15T07:06:18;1.00;99.90
8643;DHT22;4359;49.358;11.256;2022-11-15T07:08:43;1.20;99.90
8643;DHT22;4359;49.358;11.256;2022-11-15T07:11:09;1.50;99.90
8643;DHT22;4359;49.358;11.256;2022-11-15T07:13:35;1.70;99.90
8643;DHT22;4359;49.358;11.256;2022-11-15T07:16:03;1.60;99.90
8643;DHT22;4359;49.358;11.256;2022-11-15T07:18:29;1.50;99.90
8643;DHT22;4359;49.358;11.256;2022-11-15T07:20:55;1.40;99.90
8643;DHT22;4359;49.358;11.256;2022-11-15T07:23:20;1.50;99.90
8643;DHT22;4359;49.358;11.256;2022-11-15T07:25:46;1.80;99.90
8643;DHT22;4359;49.358;11.256;2022-11-15T07:28:11;2.00;99.90
8643;DHT22;4359;49.358;11.256;2022-11-15T07:30:37;2.40;99.90
8643;DHT22;4359;49.358;11.256;2022-11-15T07:33:02;2.70;99.90
8643;DHT22;4359;49.358;11.256;2022-11-15T07:35:28;3.10;99.90
8643;DHT22;4359;49.358;11.256;2022-11-15T07:37:57;3.40;99.90
8643;DHT22;4359;49.358;11.256;2022-11-15T07:40:23;3.70;99.90
8643;DHT22;4359;49.358;11.256;2022-11-15T07:42:49;3.90;99.90
8643;DHT22;4359;49.358;11.256;2022-11-15T07:45:18;4.20;99.90
8643;DHT22;4359;49.358;11.256;2022-11-15T07:47:47;4.50;99.90
8643;DHT22;4359;49.358;11.256;2022-11-15T07:50:13;4.60;99.90
8643;DHT22;4359;49.358;11.256;2022-11-15T07:52:38;4.90;99.90
8643;DHT22;4359;49.358;11.256;2022-11-15T07:55:04;5.10;99.90
8643;DHT22;4359;49.358;11.256;2022-11-15T07:57:30;5.30;99.90
8643;DHT22;4359;49.358;11.256;2022-11-15T07:59:55;5.40;99.90
8643;DHT22;4359;49.358;11.256;2022-11-15T08:02:21;5.60;99.90
8643;DHT22;4359;49.358;11.256;2022-11-15T08:04:46;6.00;99.90
8643;DHT22;4359;49.358;11.256;2022-11-15T08:07:12;6.40;99.90
8643;DHT22;4359;49.358;11.256;2022-11-15T08:09:37;6.50;99.90
8643;DHT22;4359;49.358;11.256;2022-11-15T08:12:03;6.70;99.90
8643;DHT22;4359;49.358;11.256;2022-11-15T08:14:28;6.90;99.90
8643;DHT22;4359;49.358;11.256;2022-11-15T08:16:54;7.30;99.90
8643;DHT22;4359;49.358;11.256;2022-11-15T08:19:20;7.50;99.90
8643;DHT22;4359;49.358;11.256;2022-11-15T08:21:45;7.70;99.90
8643;DHT22;4359;49.358;11.256;2022-11-15T08:24:11;8.00;99.90
8643;DHT22;4359;49.358;11.256;2022-11-15T08:26:36;8.50;99.90
8643;DHT22;4359;49.358;11.256;2022-11-15T08:29:02;8.70;99.90
8643;DHT22;4359;49.358;11.256;2022-11-15T08:31:27;8.90;99.90
8643;DHT22;4359;49.358;11.256;2022-11-15T08:33:53;9.10;99.90
8643;DHT22;4359;49.358;11.256;2022-11-15T08:36:19;9.30;99.90
8643;DHT22;4359;49.358;11.256;2022-11-15T08:38:44;9.50;99.90
8643;DHT22;4359;49.358;11.256;2022-11-15T08:41:12;9.80;99.90
8643;DHT22;4359;49.358;11.256;2022-11-15T08:43:38;9.70;99.90
8643;DHT22;4359;49.358;11.256;2022-11-15T08:46:04;9.70;99.90
8643;DHT22;4359;49.358;11.256;2022-11-15T08:48:29;9.60;99.90
8643;DHT22;4359;49.358;11.256;2022-11-15T08:50:55;9.60;99.90
8643;DHT22;4359;49.358;11.256;2022-11-15T08:53:21;9.70;99.90
8643;DHT22;4359;49.358;11.256;2022-11-15T08:55:49;9.80;99.90
8643;DHT22;4359;49.358;11.256;2022-11-15T08:58:15;9.70;99.90
8643;DHT22;4359;49.358;11.256;2022-11-15T09:00:41;9.70;99.90
8643;DHT22;4359;49.358;11.256;2022-11-15T09:03:06;9.70;99.90
8643;DHT22;4359;49.358;11.256;2022-11-15T09:05:32;9.70;99.90
8643;DHT22;4359;49.358;11.256;2022-11-15T09:08:00;9.80;99.90
8643;DHT22;4359;49.358;11.256;2022-11-15T09:10:26;9.90;99.90
8643;DHT22;4359;49.358;11.256;2022-11-15T09:12:51;10.00;99.90
8643;DHT22;4359;49.358;11.256;2022-11-15T09:15:17;10.10;99.90
8643;DHT22;4359;49.358;11.256;2022-11-15T09:17:42;10.30;99.90
8643;DHT22;4359;49.358;11.256;2022-11-15T09:20:08;10.40;99.90
8643;DHT22;4359;49.358;11.256;2022-11-15T09:22:34;10.40;99.90
8643;DHT22;4359;49.358;11.256;2022-11-15T09:25:00;10.60;99.90
8643;DHT22;4359;49.358;11.256;2022-11-15T09:27:29;10.60;99.90
8643;DHT22;4359;49.358;11.256;2022-11-15T09:29:54;10.70;99.90
8643;DHT22;4359;49.358;11.256;2022-11-15T09:32:20;10.80;99.90
8643;DHT22;4359;49.358;11.256;2022-11-15T09:34:45;10.90;99.90
8643;DHT22;4359;49.358;11.256;2022-11-15T09:37:11;10.90;99.90
8643;DHT22;4359;49.358;11.256;2022-11-15T09:39:37;11.00;99.90
8643;DHT22;4359;49.358;11.256;2022-11-15T09:49:55;11.40;99.90
8643;DHT22;4359;49.358;11.256;2022-11-15T09:52:22;11.50;99.90
8643;DHT22;4359;49.358;11.256;2022-11-15T09:54:48;11.60;99.90
8643;DHT22;4359;49.358;11.256;2022-11-15T10:04:46;11.70;99.90
8643;DHT22;4359;49.358;11.256;2022-11-15T10:07:23;11.80;99.90
8643;DHT22;4359;49.358;11.256;2022-11-15T10:12:16;11.90;99.90
8643;DHT22;4359;49.358;11.256;2022-11-15T10:14:42;12.00;99.90
8643;DHT22;4359;49.358;11.256;2022-11-15T10:22:50;12.20;99.90
8643;DHT22;4359;49.358;11.256;2022-11-15T10:27:42;12.30;99.90
8643;DHT22;4359;49.358;11.256;2022-11-15T10:30:15;12.40;99.90
8643;DHT22;4359;49.358;11.256;2022-11-15T10:32:42;12.50;99.90
8643;DHT22;4359;49.358;11.256;2022-11-15T10:35:18;12.50;99.90
8643;DHT22;4359;49.358;11.256;2022-11-15T10:37:44;12.60;99.90
8643;DHT22;4359;49.358;11.256;2022-11-15T10:40:15;12.70;99.90
8643;DHT22;4359;49.358;11.256;2022-11-15T10:42:41;12.90;99.90
8643;DHT22;4359;49.358;11.256;2022-11-15T10:45:27;12.90;99.90
8643;DHT22;4359;49.358;11.256;2022-11-15T10:47:53;12.90;99.90
8643;DHT22;4359;49.358;11.256;2022-11-15T10:50:26;13.00;99.90
8643;DHT22;4359;49.358;11.256;2022-11-15T10:52:51;13.00;99.90
8643;DHT22;4359;49.358;11.256;2022-11-15T10:57:48;13.20;99.90
8643;DHT22;4359;49.358;11.256;2022-11-15T11:02:56;13.30;99.90
8643;DHT22;4359;49.358;11.256;2022-11-15T11:05:29;13.30;99.90
8643;DHT22;4359;49.358;11.256;2022-11-15T11:07:59;13.40;99.90
8643;DHT22;4359;49.358;11.256;2022-11-15T11:10:25;13.50;99.90
8643;DHT22;4359;49.358;11.256;2022-11-15T11:12:50;13.60;99.90
8643;DHT22;4359;49.358;11.256;2022-11-15T11:15:16;13.70;99.90
8643;DHT22;4359;49.358;11.256;2022-11-15T11:25:59;14.50;99.90
8643;DHT22;4359;49.358;11.256;2022-11-15T11:28:39;14.80;99.90
8643;DHT22;4359;49.358;11.256;2022-11-15T11:33:44;15.20;99.90
8643;DHT22;4359;49.358;11.256;2022-11-15T11:48:55;16.70;99.90
8643;DHT22;4359;49.358;11.256;2022-11-15T11:51:26;16.80;99.90
8643;DHT22;4359;49.358;11.256;2022-11-15T11:54:01;17.00;99.90
8643;DHT22;4359;49.358;11.256;2022-11-15T11:56:31;17.10;99.90
8643;DHT22;4359;49.358;11.256;2022-11-15T11:59:39;17.20;99.90
8643;DHT22;4359;49.358;11.256;2022-11-15T12:01:45;17.30;99.90
8643;DHT22;4359;49.358;11.256;2022-11-15T12:04:21;17.20;99.90
8643;DHT22;4359;49.358;11.256;2022-11-15T12:07:02;17.00;99.90
8643;DHT22;4359;49.358;11.256;2022-11-15T12:12:02;16.90;99.90
8643;DHT22;4359;49.358;11.256;2022-11-15T12:17:00;16.80;99.90
8643;DHT22;4359;49.358;11.256;2022-11-15T12:19:26;16.70;99.90
8643;DHT22;4359;49.358;11.256;2022-11-15T12:22:26;16.80;99.90
8643;DHT22;4359;49.358;11.256;2022-11-15T12:24:57;16.80;99.90
8643;DHT22;4359;49.358;11.256;2022-11-15T12:27:38;17.00;99.90
8643;DHT22;4359;49.358;11.256;2022-11-15T12:30:20;17.10;99.90
8643;DHT22;4359;49.358;11.256;2022-11-15T12:32:51;17.40;99.90
8643;DHT22;4359;49.358;11.256;2022-11-15T12:37:50;17.00;99.90
8643;DHT22;4359;49.358;11.256;2022-11-15T12:40:20;17.00;99.90
8643;DHT22;4359;49.358;11.256;2022-11-15T12:45:38;17.10;99.90
8643;DHT22;4359;49.358;11.256;2022-11-15T12:58:41;16.60;99.90
8643;DHT22;4359;49.358;11.256;2022-11-15T13:06:34;16.20;99.90
8643;DHT22;4359;49.358;11.256;2022-11-15T13:09:02;16.10;99.90
8643;DHT22;4359;49.358;11.256;2022-11-15T13:17:00;16.60;99.90
8643;DHT22;4359;49.358;11.256;2022-11-15T13:19:25;16.70;99.90
8643;DHT22;4359;49.358;11.256;2022-11-15T13:21:51;16.90;99.90
8643;DHT22;4359;49.358;11.256;2022-11-15T13:24:37;17.00;99.90
8643;DHT22;4359;49.358;11.256;2022-11-15T13:27:09;17.10;99.90
8643;DHT22;4359;49.358;11.256;2022-11-15T13:29:36;17.30;99.90
8643;DHT22;4359;49.358;11.256;2022-11-15T13:32:01;17.00;99.90
8643;DHT22;4359;49.358;11.256;2022-11-15T13:34:30;16.80;99.90
8643;DHT22;4359;49.358;11.256;2022-11-15T13:37:01;16.50;99.90
8643;DHT22;4359;49.358;11.256;2022-11-15T13:41:52;15.80;99.90
8643;DHT22;4359;49.358;11.256;2022-11-15T13:44:22;15.50;99.90
8643;DHT22;4359;49.358;11.256;2022-11-15T13:46:48;15.20;99.90
8643;DHT22;4359;49.358;11.256;2022-11-15T13:49:13;14.90;99.90
8643;DHT22;4359;49.358;11.256;2022-11-15T13:51:49;14.70;99.90
8643;DHT22;4359;49.358;11.256;2022-11-15T13:54:50;14.50;99.90
8643;DHT22;4359;49.358;11.256;2022-11-15T13:57:20;14.40;99.90
8643;DHT22;4359;49.358;11.256;2022-11-15T13:59:50;14.20;99.90
8643;DHT22;4359;49.358;11.256;2022-11-15T14:02:17;14.10;99.90
8643;DHT22;4359;49.358;11.256;2022-11-15T14:04:57;14.00;99.90
8643;DHT22;4359;49.358;11.256;2022-11-15T14:07:24;13.90;99.90
8643;DHT22;4359;49.358;11.256;2022-11-15T14:09:50;13.90;99.90
8643;DHT22;4359;49.358;11.256;2022-11-15T14:12:34;13.90;99.90
8643;DHT22;4359;49.358;11.256;2022-11-15T14:15:02;13.90;99.90
8643;DHT22;4359;49.358;11.256;2022-11-15T14:17:43;13.90;99.90
8643;DHT22;4359;49.358;11.256;2022-11-15T14:22:53;13.80;99.90
8643;DHT22;4359;49.358;11.256;2022-11-15T14:25:20;13.70;99.90
8643;DHT22;4359;49.358;11.256;2022-11-15T14:30:30;13.20;99.90
8643;DHT22;4359;49.358;11.256;2022-11-15T14:32:56;12.80;99.90
8643;DHT22;4359;49.358;11.256;2022-11-15T14:35:22;12.40;99.90
8643;DHT22;4359;49.358;11.256;2022-11-15T14:37:48;12.10;99.90
8643;DHT22;4359;49.358;11.256;2022-11-15T14:40:19;11.80;99.90
8643;DHT22;4359;49.358;11.256;2022-11-15T14:42:45;11.50;99.90
8643;DHT22;4359;49.358;11.256;2022-11-15T14:45:12;11.20;99.90
8643;DHT22;4359;49.358;11.256;2022-11-15T14:47:38;11.00;99.90
8643;DHT22;4359;49.358;11.256;2022-11-15T14:50:04;10.70;99.90
8643;DHT22;4359;49.358;11.256;2022-11-15T14:52:30;10.50;99.90
8643;DHT22;4359;49.358;11.256;2022-11-15T14:54:59;10.40;99.90
8643;DHT22;4359;49.358;11.256;2022-11-15T14:57:26;10.20;99.90
8643;DHT22;4359;49.358;11.256;2022-11-15T14:59:52;10.10;99.90
8643;DHT22;4359;49.358;11.256;2022-11-15T15:02:19;9.90;99.90
8643;DHT22;4359;49.358;11.256;2022-11-15T15:04:45;9.70;99.90
8643;DHT22;4359;49.358;11.256;2022-11-15T15:07:10;9.50;99.90
8643;DHT22;4359;49.358;11.256;2022-11-15T15:09:36;9.30;99.90
8643;DHT22;4359;49.358;11.256;2022-11-15T15:12:01;9.10;99.90
8643;DHT22;4359;49.358;11.256;2022-11-15T15:14:27;9.00;99.90
8643;DHT22;4359;49.358;11.256;2022-11-15T15:16:52;8.80;99.90
8643;DHT22;4359;49.358;11.256;2022-11-15T15:19:18;8.70;99.90
8643;DHT22;4359;49.358;11.256;2022-11-15T15:21:43;8.50;99.90
8643;DHT22;4359;49.358;11.256;2022-11-15T15:24:15;8.50;99.90
8643;DHT22;4359;49.358;11.256;2022-11-15T15:26:43;8.50;99.90
8643;DHT22;4359;49.358;11.256;2022-11-15T15:29:11;8.50;99.90
8643;DHT22;4359;49.358;11.256;2022-11-15T15:31:37;8.40;99.90
8643;DHT22;4359;49.358;11.256;2022-11-15T15:34:02;8.40;99.90
8643;DHT22;4359;49.358;11.256;2022-11-15T15:36:28;8.30;99.90
8643;DHT22;4359;49.358;11.256;2022-11-15T15:38:53;8.30;99.90
8643;DHT22;4359;49.358;11.256;2022-11-15T15:41:19;8.10;99.90
8643;DHT22;4359;49.358;11.256;2022-11-15T15:43:44;8.00;99.90
8643;DHT22;4359;49.358;11.256;2022-11-15T15:46:11;7.80;99.90
8643;DHT22;4359;49.358;11.256;2022-11-15T15:48:37;7.80;99.90
8643;DHT22;4359;49.358;11.256;2022-11-15T15:51:05;7.80;99.90
8643;DHT22;4359;49.358;11.256;2022-11-15T15:53:30;7.90;99.90
8643;DHT22;4359;49.358;11.256;2022-11-15T15:55:56;7.90;99.90
8643;DHT22;4359;49.358;11.256;2022-11-15T15:58:22;7.90;99.90
8643;DHT22;4359;49.358;11.256;2022-11-15T16:00:47;7.80;99.90
8643;DHT22;4359;49.358;11.256;2022-11-15T16:03:13;7.70;99.90
8643;DHT22;4359;49.358;11.256;2022-11-15T16:05:38;7.60;99.90
8643;DHT22;4359;49.358;11.256;2022-11-15T16:08:04;7.40;99.90
8643;DHT22;4359;49.358;11.256;2022-11-15T16:10:33;7.30;99.90
8643;DHT22;4359;49.358;11.256;2022-11-15T16:13:02;7.20;99.90
8643;DHT22;4359;49.358;11.256;2022-11-15T16:15:29;7.10;99.90
8643;DHT22;4359;49.358;11.256;2022-11-15T16:17:56;6.90;99.90
8643;DHT22;4359;49.358;11.256;2022-11-15T16:20:23;7.00;99.90
8643;DHT22;4359;49.358;11.256;2022-11-15T16:22:53;7.00;99.90
8643;DHT22;4359;49.358;11.256;2022-11-15T16:25:18;7.00;99.90
8643;DHT22;4359;49.358;11.256;2022-11-15T16:27:44;7.00;99.90
8643;DHT22;4359;49.358;11.256;2022-11-15T16:30:14;6.90;99.90
8643;DHT22;4359;49.358;11.256;2022-11-15T16:32:40;6.90;99.90
8643;DHT22;4359;49.358;11.256;2022-11-15T16:35:06;6.90;99.90
8643;DHT22;4359;49.358;11.256;2022-11-15T16:37:32;6.80;99.90
8643;DHT22;4359;49.358;11.256;2022-11-15T16:39:57;6.80;99.90
8643;DHT22;4359;49.358;11.256;2022-11-15T16:42:23;6.80;99.90
8643;DHT22;4359;49.358;11.256;2022-11-15T16:44:48;7.00;99.90
8643;DHT22;4359;49.358;11.256;2022-11-15T16:47:15;7.00;99.90
8643;DHT22;4359;49.358;11.256;2022-11-15T16:49:42;7.00;99.90
8643;DHT22;4359;49.358;11.256;2022-11-15T16:52:07;6.90;99.90
8643;DHT22;4359;49.358;11.256;2022-11-15T16:54:33;6.80;99.90
8643;DHT22;4359;49.358;11.256;2022-11-15T16:56:58;6.70;99.90
8643;DHT22;4359;49.358;11.256;2022-11-15T16:59:24;6.60;99.90
8643;DHT22;4359;49.358;11.256;2022-11-15T17:01:49;6.60;99.90
8643;DHT22;4359;49.358;11.256;2022-11-15T17:04:16;6.80;99.90
8643;DHT22;4359;49.358;11.256;2022-11-15T17:06:43;6.80;99.90
8643;DHT22;4359;49.358;11.256;2022-11-15T17:09:13;6.90;99.90
8643;DHT22;4359;49.358;11.256;2022-11-15T17:11:42;7.00;99.90
8643;DHT22;4359;49.358;11.256;2022-11-15T17:14:08;7.00;99.90
8643;DHT22;4359;49.358;11.256;2022-11-15T17:16:33;7.00;99.90
8643;DHT22;4359;49.358;11.256;2022-11-15T17:19:00;6.90;99.90
8643;DHT22;4359;49.358;11.256;2022-11-15T17:21:26;6.90;99.90
8643;DHT22;4359;49.358;11.256;2022-11-15T17:23:53;6.90;99.90
8643;DHT22;4359;49.358;11.256;2022-11-15T17:26:18;6.80;99.90
8643;DHT22;4359;49.358;11.256;2022-11-15T17:28:44;6.80;99.90
8643;DHT22;4359;49.358;11.256;2022-11-15T17:31:11;6.70;99.90
8643;DHT22;4359;49.358;11.256;2022-11-15T17:33:37;6.60;99.90
8643;DHT22;4359;49.358;11.256;2022-11-15T17:36:07;6.40;99.90
8643;DHT22;4359;49.358;11.256;2022-11-15T17:38:33;6.40;99.90
8643;DHT22;4359;49.358;11.256;2022-11-15T17:41:14;6.40;99.90
8643;DHT22;4359;49.358;11.256;2022-11-15T17:43:40;6.50;99.90
8643;DHT22;4359;49.358;11.256;2022-11-15T17:46:15;6.50;99.90
8643;DHT22;4359;49.358;11.256;2022-11-15T17:48:42;6.60;99.90
8643;DHT22;4359;49.358;11.256;2022-11-15T17:51:09;6.60;99.90
8643;DHT22;4359;49.358;11.256;2022-11-15T17:53:36;6.60;99.90
8643;DHT22;4359;49.358;11.256;2022-11-15T17:56:02;6.70;99.90
8643;DHT22;4359;49.358;11.256;2022-11-15T17:58:29;6.80;99.90
8643;DHT22;4359;49.358;11.256;2022-11-15T18:00:54;6.80;99.90
8643;DHT22;4359;49.358;11.256;2022-11-15T18:03:20;6.90;99.90
8643;DHT22;4359;49.358;11.256;2022-11-15T18:05:45;6.80;99.90
8643;DHT22;4359;49.358;11.256;2022-11-15T18:08:11;6.90;99.90
8643;DHT22;4359;49.358;11.256;2022-11-15T18:10:38;6.80;99.90